Time;durP1;ratioP1;P1;durP2;ratioP2;P2;SDS_P1;SDS_P2;PMS_P1;PMS_P2;Temp;Humidity;BMP_temperature;BMP_pressure;BME280_temperature;BME280_humidity;BME280_pressure;Samples;Min_cycle;Max_cycle;Signal;HPM_P1;HPM_P2
2022/10/02 00:00:42;;;;;;;20.83;6.72;;;;;;;-141.48;100.00;69781.59;5156428;28;20510;-81
2022/10/02 00:03:27;;;;;;;20.15;6.50;;;;;;;-141.48;100.00;69781.59;5156143;28;20453;-81
2022/10/02 00:06:05;;;;;;;16.65;7.15;;;;;;;-141.48;100.00;69781.59;5156708;28;20087;-81
2022/10/02 00:08:40;;;;;;;16.52;6.97;;;;;;;-141.48;100.00;69781.59;5156679;28;20395;-81
2022/10/02 00:11:20;;;;;;;7.10;5.80;;;;;;;-141.48;100.00;69781.59;5155387;28;20511;-82
2022/10/02 00:13:55;;;;;;;26.83;8.15;;;;;;;-141.48;100.00;69781.59;5155596;28;20405;-82
2022/10/02 00:16:48;;;;;;;14.73;8.32;;;;;;;-141.48;100.00;69781.59;5155827;28;20041;-82
2022/10/02 00:19:19;;;;;;;17.52;6.07;;;;;;;-141.48;100.00;69781.59;5156364;28;20038;-82
2022/10/02 00:24:49;;;;;;;37.25;8.48;;;;;;;-141.48;100.00;69781.59;5162780;28;20185;-81
2022/10/02 00:27:22;;;;;;;17.38;5.18;;;;;;;-141.48;100.00;69781.59;5167676;28;20084;-81
2022/10/02 00:29:59;;;;;;;31.60;9.75;;;;;;;-141.48;100.00;69781.59;5167634;28;20030;-82
2022/10/02 00:33:05;;;;;;;18.45;6.97;;;;;;;-141.48;100.00;69781.59;5165739;28;20026;-82
2022/10/02 00:35:44;;;;;;;12.55;8.48;;;;;;;-141.48;100.00;69781.59;5167153;28;20086;-81
2022/10/02 00:38:32;;;;;;;14.05;7.47;;;;;;;-141.48;100.00;69781.59;5165942;28;20030;-82
2022/10/02 00:41:21;;;;;;;33.97;7.35;;;;;;;-141.48;100.00;69781.59;5166637;28;20045;-82
2022/10/02 00:43:51;;;;;;;17.88;8.35;;;;;;;-141.48;100.00;69781.59;5166653;28;20089;-81
2022/10/02 00:46:31;;;;;;;19.38;8.30;;;;;;;-141.48;100.00;69781.59;5167591;28;20126;-81
2022/10/02 00:49:32;;;;;;;10.05;5.03;;;;;;;-141.48;100.00;69781.59;5168430;28;20041;-81
2022/10/02 00:52:35;;;;;;;14.65;6.25;;;;;;;-141.48;100.00;69781.59;5168244;28;20022;-81
2022/10/02 00:55:06;;;;;;;10.55;7.15;;;;;;;-141.48;100.00;69781.59;5165918;28;20061;-83
2022/10/02 00:57:54;;;;;;;12.82;6.45;;;;;;;-141.48;100.00;69781.59;5167850;28;20027;-83
2022/10/02 01:00:25;;;;;;;33.38;9.68;;;;;;;-141.48;100.00;69781.59;5169504;28;20480;-82
2022/10/02 01:03:07;;;;;;;21.70;6.63;;;;;;;-141.48;100.00;69781.59;5169991;28;20073;-82
2022/10/02 01:05:38;;;;;;;13.32;7.35;;;;;;;-141.48;100.00;69781.59;5182536;28;20038;-82
2022/10/02 01:08:09;;;;;;;23.10;7.88;;;;;;;-141.48;100.00;69781.59;5166584;28;20416;-82
2022/10/02 01:10:39;;;;;;;28.33;8.55;;;;;;;-141.48;100.00;69781.59;5166937;28;20089;-82
2022/10/02 01:13:10;;;;;;;23.83;8.43;;;;;;;-141.48;100.00;69781.59;5166266;28;20424;-82
2022/10/02 01:15:48;;;;;;;17.90;6.30;;;;;;;-141.48;100.00;69781.59;5166112;28;20022;-81
2022/10/02 01:18:19;;;;;;;15.25;6.07;;;;;;;-141.48;100.00;69781.59;5167008;28;20115;-82
2022/10/02 01:20:53;;;;;;;19.55;6.57;;;;;;;-141.48;100.00;69781.59;5167583;28;20030;-82
2022/10/02 01:23:26;;;;;;;20.38;7.53;;;;;;;-141.48;100.00;69781.59;5175710;28;20026;-82
2022/10/02 01:25:57;;;;;;;18.27;8.80;;;;;;;-141.48;100.00;69781.59;5187778;28;20065;-82
2022/10/02 01:28:28;;;;;;;15.75;7.05;;;;;;;-141.48;100.00;69781.59;5194308;28;20041;-82
2022/10/02 01:31:13;;;;;;;30.63;8.32;;;;;;;-141.48;100.00;69781.59;5196874;28;20555;-81
2022/10/02 01:33:44;;;;;;;10.98;6.22;;;;;;;-141.48;100.00;69781.59;5195352;28;20026;-81
2022/10/02 01:36:15;;;;;;;19.95;5.82;;;;;;;-141.48;100.00;69781.59;5192438;28;20036;-82
2022/10/02 01:38:48;;;;;;;27.40;8.10;;;;;;;-141.48;100.00;69781.59;5193098;28;20021;-82
2022/10/02 01:41:19;;;;;;;12.65;6.10;;;;;;;-141.48;100.00;69781.59;5192316;28;20096;-82
2022/10/02 01:43:54;;;;;;;17.02;6.50;;;;;;;-141.48;100.00;69781.59;5189332;28;20017;-82
2022/10/02 01:46:59;;;;;;;12.95;4.50;;;;;;;-141.48;100.00;69781.59;5190232;28;20036;-82
2022/10/02 01:49:36;;;;;;;18.55;6.82;;;;;;;-141.48;100.00;69781.59;5188781;28;20034;-81
2022/10/02 01:52:12;;;;;;;17.75;4.53;;;;;;;-141.48;100.00;69781.59;5187920;28;20053;-82
2022/10/02 01:54:51;;;;;;;10.20;4.85;;;;;;;-141.48;100.00;69781.59;5187648;28;20108;-82
2022/10/02 01:57:35;;;;;;;9.70;4.95;;;;;;;-141.48;100.00;69781.59;5188634;28;20591;-81
2022/10/02 02:00:11;;;;;;;16.45;7.13;;;;;;;-141.48;100.00;69781.59;5189117;28;20041;-81
2022/10/02 02:02:52;;;;;;;21.23;6.60;;;;;;;-141.48;100.00;69781.59;5188144;28;20109;-80
2022/10/02 02:05:31;;;;;;;15.82;4.88;;;;;;;-141.48;100.00;69781.59;5186751;28;20025;-80
2022/10/02 02:08:14;;;;;;;14.05;6.95;;;;;;;-141.48;100.00;69781.59;5184592;28;20022;-80
2022/10/02 02:11:06;;;;;;;11.77;6.07;;;;;;;-141.48;100.00;69781.59;5184643;28;20550;-79
2022/10/02 02:13:57;;;;;;;8.55;5.18;;;;;;;-141.48;100.00;69781.59;5181719;28;20026;-82
2022/10/02 02:16:42;;;;;;;10.65;5.53;;;;;;;-141.48;100.00;69781.59;5184748;28;20045;-82
2022/10/02 02:19:13;;;;;;;15.07;6.05;;;;;;;-141.48;100.00;69781.59;5184770;28;20036;-80
2022/10/02 02:21:54;;;;;;;20.27;6.63;;;;;;;-141.48;100.00;69781.59;5184164;28;20117;-79
2022/10/02 02:24:32;;;;;;;12.45;4.05;;;;;;;-141.48;100.00;69781.59;5183476;28;20057;-79
2022/10/02 02:27:05;;;;;;;18.60;6.82;;;;;;;-141.48;100.00;69781.59;5184303;28;20057;-80
2022/10/02 02:29:39;;;;;;;10.20;5.05;;;;;;;-141.48;100.00;69781.59;5184436;28;20475;-80
2022/10/02 02:32:13;;;;;;;13.13;6.00;;;;;;;-141.48;100.00;69781.59;5183978;28;20113;-80
2022/10/02 02:34:49;;;;;;;23.75;7.43;;;;;;;-141.48;100.00;69781.59;5184001;28;20030;-78
2022/10/02 02:37:23;;;;;;;15.13;6.53;;;;;;;-141.48;100.00;69781.59;5183068;28;20030;-81
2022/10/02 02:39:59;;;;;;;15.07;5.43;;;;;;;-141.48;100.00;69781.59;5184194;28;20518;-81
2022/10/02 02:42:34;;;;;;;18.00;5.40;;;;;;;-141.48;100.00;69781.59;5182783;28;20033;-81
2022/10/02 02:45:17;;;;;;;14.07;5.90;;;;;;;-141.48;100.00;69781.59;5183212;28;20084;-82
2022/10/02 02:47:52;;;;;;;12.00;4.35;;;;;;;-141.48;100.00;69781.59;5187940;28;20069;-81
2022/10/02 02:50:36;;;;;;;27.23;8.23;;;;;;;-141.48;100.00;69781.59;5186635;28;20464;-81
2022/10/02 02:53:17;;;;;;;16.60;7.65;;;;;;;-141.48;100.00;69781.59;5187981;28;20059;-80
2022/10/02 02:55:54;;;;;;;11.93;7.75;;;;;;;-141.48;100.00;69781.59;5188102;28;20086;-80
2022/10/02 02:58:39;;;;;;;16.10;7.28;;;;;;;-141.48;100.00;69781.59;5187443;28;20061;-82
2022/10/02 03:01:10;;;;;;;13.75;5.18;;;;;;;-141.48;100.00;69781.59;5188190;28;20514;-81
2022/10/02 03:03:40;;;;;;;12.75;5.53;;;;;;;-141.48;100.00;69781.59;5186835;28;20057;-80
2022/10/02 03:06:20;;;;;;;17.30;7.82;;;;;;;-141.48;100.00;69781.59;5188056;28;20021;-80
2022/10/02 03:08:51;;;;;;;9.80;6.22;;;;;;;-141.48;100.00;69781.59;5187110;28;20026;-81
2022/10/02 03:11:35;;;;;;;13.40;6.63;;;;;;;-141.48;100.00;69781.59;5186108;28;20021;-80
2022/10/02 03:14:27;;;;;;;24.38;8.38;;;;;;;-141.48;100.00;69781.59;5186867;28;20038;-78
2022/10/02 03:17:29;;;;;;;25.90;6.97;;;;;;;-141.48;100.00;69781.59;5187145;28;20494;-81
2022/10/02 03:20:12;;;;;;;11.55;6.95;;;;;;;-141.48;100.00;69781.59;5179577;28;20034;-80
2022/10/02 03:22:56;;;;;;;8.75;5.40;;;;;;;-141.48;100.00;69781.59;5190638;28;20112;-78
2022/10/02 03:25:38;;;;;;;18.85;6.82;;;;;;;-141.48;100.00;69781.59;5189477;28;20081;-78
2022/10/02 03:28:15;;;;;;;9.27;5.95;;;;;;;-141.48;100.00;69781.59;5186300;28;20392;-78
2022/10/02 03:30:46;;;;;;;20.98;8.00;;;;;;;-141.48;100.00;69781.59;5186061;28;20026;-81
2022/10/02 03:33:17;;;;;;;33.45;7.60;;;;;;;-141.48;100.00;69781.59;5184019;28;20041;-79
2022/10/02 03:35:49;;;;;;;18.55;5.95;;;;;;;-141.48;100.00;69781.59;5186061;28;20059;-80
2022/10/02 03:38:22;;;;;;;19.38;8.40;;;;;;;-141.48;100.00;69781.59;5186259;28;20106;-81
2022/10/02 03:40:58;;;;;;;24.88;8.63;;;;;;;-141.48;100.00;69781.59;5185857;28;20022;-79
2022/10/02 03:43:29;;;;;;;18.40;6.50;;;;;;;-141.48;100.00;69781.59;5185287;28;20018;-80
2022/10/02 03:46:00;;;;;;;9.30;6.28;;;;;;;-141.48;100.00;69781.59;5186372;28;20088;-82
2022/10/02 03:48:30;;;;;;;28.45;7.22;;;;;;;-141.48;100.00;69781.59;5185231;28;20033;-81
2022/10/02 03:51:01;;;;;;;8.60;5.88;;;;;;;-141.48;100.00;69781.59;5185875;28;20032;-79
2022/10/02 03:53:35;;;;;;;19.00;8.13;;;;;;;-141.48;100.00;69781.59;5184790;28;20038;-79
2022/10/02 03:56:07;;;;;;;17.30;6.15;;;;;;;-141.48;100.00;69781.59;5185782;28;20541;-79
2022/10/02 03:58:42;;;;;;;9.27;4.65;;;;;;;-141.48;100.00;69781.59;5185396;28;20053;-82
2022/10/02 04:01:19;;;;;;;18.17;6.10;;;;;;;-141.48;100.00;69781.59;5185670;28;20156;-83
2022/10/02 04:03:54;;;;;;;12.13;6.20;;;;;;;-141.48;100.00;69781.59;5184920;28;20052;-81
2022/10/02 04:06:57;;;;;;;12.30;5.05;;;;;;;-141.48;100.00;69781.59;5186400;28;20087;-80
2022/10/02 04:09:41;;;;;;;19.95;6.25;;;;;;;-141.48;100.00;69781.59;5186878;28;20081;-82
2022/10/02 04:12:21;;;;;;;12.07;4.75;;;;;;;-141.48;100.00;69781.59;5186465;28;20085;-80
2022/10/02 04:15:02;;;;;;;10.32;5.32;;;;;;;-141.48;100.00;69781.59;5185679;28;20511;-82
2022/10/02 04:17:43;;;;;;;16.02;6.10;;;;;;;-141.48;100.00;69781.59;5186037;28;20084;-81
2022/10/02 04:20:30;;;;;;;23.00;6.57;;;;;;;-141.48;100.00;69781.59;5184583;28;20073;-81
2022/10/02 04:23:25;;;;;;;12.88;5.10;;;;;;;-141.48;100.00;69781.59;5186242;28;20033;-81
2022/10/02 04:26:33;;;;;;;17.30;4.78;;;;;;;-141.48;100.00;69781.59;5186623;28;20053;-80
2022/10/02 04:29:24;;;;;;;10.60;4.80;;;;;;;-141.48;100.00;69781.59;5156135;28;20065;-79
2022/10/02 04:32:12;;;;;;;14.23;5.40;;;;;;;-141.48;100.00;69781.59;5188479;28;20021;-81
2022/10/02 04:34:43;;;;;;;11.98;5.78;;;;;;;-141.48;100.00;69781.59;5185130;28;20487;-79
2022/10/02 04:37:32;;;;;;;17.35;5.90;;;;;;;-141.48;100.00;69781.59;5184857;28;20029;-80
2022/10/02 04:40:16;;;;;;;19.20;5.83;;;;;;;-141.48;100.00;69781.59;5182998;28;20368;-79
2022/10/02 04:43:16;;;;;;;7.68;3.60;;;;;;;-141.48;100.00;69781.59;5184471;28;20029;-78
2022/10/02 04:46:28;;;;;;;12.35;5.95;;;;;;;-141.48;100.00;69781.59;5184032;28;20025;-79
2022/10/02 04:49:37;;;;;;;3.55;3.25;;;;;;;-141.48;100.00;69781.59;5164713;28;20038;-78
2022/10/02 04:52:32;;;;;;;4.95;4.00;;;;;;;-141.48;100.00;69781.59;5182934;28;20394;-80
2022/10/02 04:55:34;;;;;;;17.70;6.65;;;;;;;-141.48;100.00;69781.59;5182458;28;20028;-78
2022/10/02 04:58:22;;;;;;;18.75;4.93;;;;;;;-141.48;100.00;69781.59;5183180;28;20029;-81
2022/10/02 05:01:21;;;;;;;17.42;6.10;;;;;;;-141.48;100.00;69781.59;5183702;28;20364;-78
2022/10/02 05:04:16;;;;;;;10.07;5.57;;;;;;;-141.48;100.00;69781.59;5182799;28;20032;-79
2022/10/02 05:07:27;;;;;;;7.38;3.72;;;;;;;-141.48;100.00;69781.59;5183946;28;20507;-80
2022/10/02 05:10:22;;;;;;;11.10;3.70;;;;;;;-141.48;100.00;69781.59;5119811;28;20508;-79
2022/10/02 05:13:10;;;;;;;9.18;5.57;;;;;;;-141.48;100.00;69781.59;5120372;29;20055;-79
2022/10/02 05:16:02;;;;;;;11.63;4.50;;;;;;;-141.48;100.00;69781.59;5172502;28;20065;-79
2022/10/02 05:18:41;;;;;;;9.18;5.03;;;;;;;-141.48;100.00;69781.59;5181441;28;20021;-79
2022/10/02 05:21:31;;;;;;;8.10;4.63;;;;;;;-141.48;100.00;69781.59;5183085;28;20053;-79
2022/10/02 05:24:15;;;;;;;6.45;4.70;;;;;;;-141.48;100.00;69781.59;5183270;28;20034;-80
2022/10/02 05:27:15;;;;;;;6.68;4.38;;;;;;;-141.48;100.00;69781.59;5180165;28;20026;-80
2022/10/02 05:30:00;;;;;;;16.05;5.28;;;;;;;-141.48;100.00;69781.59;5184207;28;20030;-80
2022/10/02 05:32:58;;;;;;;10.80;4.82;;;;;;;-141.48;100.00;69781.59;5183148;28;20480;-80
2022/10/02 05:35:50;;;;;;;7.65;3.97;;;;;;;-141.48;100.00;69781.59;5183833;28;20029;-80
2022/10/02 05:38:44;;;;;;;9.00;4.30;;;;;;;-141.48;100.00;69781.59;5184403;28;20033;-80
2022/10/02 05:41:26;;;;;;;4.40;4.00;;;;;;;-141.48;100.00;69781.59;5188669;28;20118;-79
2022/10/02 05:44:16;;;;;;;6.95;4.18;;;;;;;-141.48;100.00;69781.59;5187965;28;20030;-78
2022/10/02 05:47:04;;;;;;;11.30;3.92;;;;;;;-141.48;100.00;69781.59;5184576;28;20108;-79
2022/10/02 05:49:40;;;;;;;11.48;4.60;;;;;;;-141.48;100.00;69781.59;5184425;28;20030;-79
2022/10/02 05:52:14;;;;;;;4.70;2.80;;;;;;;-141.48;100.00;69781.59;5184688;28;20029;-79
2022/10/02 05:55:02;;;;;;;6.55;4.15;;;;;;;-141.48;100.00;69781.59;5179781;28;20030;-79
2022/10/02 05:57:37;;;;;;;8.00;3.83;;;;;;;-141.48;100.00;69781.59;5184924;28;20037;-79
2022/10/02 06:00:34;;;;;;;8.00;3.97;;;;;;;-141.48;100.00;69781.59;5180476;28;20026;-79
2022/10/02 06:03:21;;;;;;;5.22;3.42;;;;;;;-141.48;100.00;69781.59;5200574;28;20465;-79
2022/10/02 06:05:55;;;;;;;9.05;4.50;;;;;;;-141.48;100.00;69781.59;5212118;28;20032;-78
2022/10/02 06:08:35;;;;;;;4.05;2.97;;;;;;;-141.48;100.00;69781.59;5212943;28;20029;-81
2022/10/02 06:11:20;;;;;;;16.27;5.68;;;;;;;-141.48;100.00;69781.59;5184307;28;20037;-79
2022/10/02 06:14:04;;;;;;;6.43;4.80;;;;;;;-141.48;100.00;69781.59;5190635;28;20411;-78
2022/10/02 06:16:43;;;;;;;12.98;4.95;;;;;;;-141.48;100.00;69781.59;5192417;28;20061;-79
2022/10/02 06:19:22;;;;;;;4.25;3.90;;;;;;;-141.48;100.00;69781.59;5191314;28;20033;-78
2022/10/02 06:22:20;;;;;;;8.05;3.05;;;;;;;-141.48;100.00;69781.59;5191410;28;20018;-78
2022/10/02 06:25:09;;;;;;;6.32;5.10;;;;;;;-141.48;100.00;69781.59;5215194;22;20046;-83
2022/10/02 06:28:01;;;;;;;6.18;4.55;;;;;;;-141.48;100.00;69781.59;5183713;28;20090;-80
2022/10/02 06:30:36;;;;;;;3.22;2.92;;;;;;;-141.48;100.00;69781.59;5187616;28;20070;-82
2022/10/02 06:33:22;;;;;;;5.97;3.70;;;;;;;-141.48;100.00;69781.59;5184825;28;20018;-82
2022/10/02 06:36:17;;;;;;;7.80;3.58;;;;;;;-141.48;100.00;69781.59;5181669;28;20495;-82
2022/10/02 06:39:15;;;;;;;4.70;3.00;;;;;;;-141.48;100.00;69781.59;5185178;28;20029;-80
2022/10/02 06:42:05;;;;;;;19.55;5.20;;;;;;;-141.48;100.00;69781.59;5185061;28;20085;-81
2022/10/02 06:44:48;;;;;;;5.38;4.07;;;;;;;-141.48;100.00;69781.59;5181795;28;20338;-81
2022/10/02 06:47:21;;;;;;;3.72;3.38;;;;;;;-141.48;100.00;69781.59;5184067;28;20034;-81
2022/10/02 06:50:27;;;;;;;9.38;4.68;;;;;;;-141.48;100.00;69781.59;5183880;28;20026;-83
2022/10/02 06:53:17;;;;;;;9.73;4.43;;;;;;;-141.48;100.00;69781.59;5182428;28;20508;-84
2022/10/02 06:55:54;;;;;;;6.13;4.88;;;;;;;-141.48;100.00;69781.59;5182953;28;20034;-83
2022/10/02 06:58:44;;;;;;;5.75;2.58;;;;;;;-141.48;100.00;69781.59;5185591;28;20030;-82
2022/10/02 07:01:26;;;;;;;;;;;;;;;-141.48;100.00;69781.59;5182547;28;20123;-83
2022/10/02 07:04:41;;;;;;;6.25;4.07;;;;;;;-141.48;100.00;69781.59;5185287;28;20135;-83
2022/10/02 07:07:26;;;;;;;7.95;3.15;;;;;;;-141.48;100.00;69781.59;5173059;28;20032;-80
2022/10/02 07:10:18;;;;;;;6.32;3.78;;;;;;;-141.48;100.00;69781.59;5182905;28;20037;-82
2022/10/02 07:12:48;;;;;;;3.28;3.08;;;;;;;-141.48;100.00;69781.59;5180290;28;20030;-81
2022/10/02 07:15:49;;;;;;;10.60;5.55;;;;;;;-141.48;100.00;69781.59;5180581;28;20027;-81
2022/10/02 07:18:41;;;;;;;12.25;3.88;;;;;;;-141.48;100.00;69781.59;5181339;28;20036;-79
2022/10/02 07:21:22;;;;;;;12.23;3.67;;;;;;;-141.48;100.00;69781.59;5181927;28;20034;-80
2022/10/02 07:23:57;;;;;;;8.15;3.60;;;;;;;-141.48;100.00;69781.59;5180696;28;20057;-81
2022/10/02 07:26:41;;;;;;;5.28;4.78;;;;;;;-141.48;100.00;69781.59;5179545;28;20218;-82
2022/10/02 07:29:23;;;;;;;6.55;4.53;;;;;;;-141.48;100.00;69781.59;5178287;28;20026;-81
2022/10/02 07:32:15;;;;;;;9.82;4.22;;;;;;;-141.48;100.00;69781.59;5180130;28;20046;-82
2022/10/02 07:35:02;;;;;;;12.20;5.30;;;;;;;-141.48;100.00;69781.59;5179200;28;20053;-83
2022/10/02 07:38:02;;;;;;;10.23;4.07;;;;;;;-141.48;100.00;69781.59;5181558;28;20098;-83
2022/10/02 07:40:38;;;;;;;9.93;3.97;;;;;;;-141.48;100.00;69781.59;5181690;28;20042;-81
2022/10/02 07:43:14;;;;;;;13.02;4.63;;;;;;;-141.48;100.00;69781.59;5180701;28;20038;-81
2022/10/02 07:46:01;;;;;;;4.53;4.25;;;;;;;-141.48;100.00;69781.59;5179021;28;20026;-81
2022/10/02 07:48:38;;;;;;;10.05;4.15;;;;;;;-141.48;100.00;69781.59;5180327;28;20449;-82
2022/10/02 07:54:25;;;;;;;8.00;4.30;;;;;;;-141.48;100.00;69781.59;5180850;28;20037;-82
2022/10/02 07:57:03;;;;;;;13.82;4.85;;;;;;;-141.48;100.00;69781.59;5179447;28;20034;-81
2022/10/02 07:59:40;;;;;;;9.73;5.25;;;;;;;-141.48;100.00;69781.59;5180136;28;20018;-82
2022/10/02 08:02:33;;;;;;;5.45;4.93;;;;;;;-141.48;100.00;69781.59;5180898;28;20040;-81
2022/10/02 08:05:33;;;;;;;17.23;6.43;;;;;;;-141.48;100.00;69781.59;5178563;28;20069;-82
2022/10/02 08:08:30;;;;;;;5.70;5.07;;;;;;;-141.48;100.00;69781.59;5178617;28;20034;-82
2022/10/02 08:11:39;;;;;;;10.32;5.68;;;;;;;-141.48;100.00;69781.59;5152751;28;20046;-82
2022/10/02 08:14:17;;;;;;;7.07;5.93;;;;;;;-141.48;100.00;69781.59;5130000;28;20041;-82
2022/10/02 08:16:50;;;;;;;9.93;6.47;;;;;;;-141.48;100.00;69781.59;5180413;28;20081;-81
2022/10/02 08:19:44;;;;;;;9.38;6.07;;;;;;;-141.48;100.00;69781.59;5180025;28;20029;-81
2022/10/02 08:22:31;;;;;;;11.13;4.65;;;;;;;-141.48;100.00;69781.59;5180913;28;20452;-81
2022/10/02 08:25:12;;;;;;;9.75;6.75;;;;;;;-141.48;100.00;69781.59;5178939;28;20023;-81
2022/10/02 08:28:00;;;;;;;8.60;5.30;;;;;;;-141.48;100.00;69781.59;5180734;28;20090;-81
2022/10/02 08:30:30;;;;;;;6.32;5.18;;;;;;;-141.48;100.00;69781.59;5178878;28;20030;-81
2022/10/02 08:33:06;;;;;;;9.55;5.25;;;;;;;-141.48;100.00;69781.59;5180099;28;20050;-81
2022/10/02 08:35:55;;;;;;;11.52;5.05;;;;;;;-141.48;100.00;69781.59;5179154;28;20026;-80
2022/10/02 08:38:34;;;;;;;5.60;3.72;;;;;;;-141.48;100.00;69781.59;5179128;28;20026;-81
2022/10/02 08:41:19;;;;;;;13.48;6.15;;;;;;;-141.48;100.00;69781.59;5179709;28;20034;-80
2022/10/02 08:44:24;;;;;;;8.07;4.07;;;;;;;-141.48;100.00;69781.59;5177057;28;20093;-82
2022/10/02 08:47:16;;;;;;;7.75;5.60;;;;;;;-141.48;100.00;69781.59;5173678;28;20377;-82
2022/10/02 08:49:58;;;;;;;8.88;4.22;;;;;;;-141.48;100.00;69781.59;5174521;28;20082;-82
2022/10/02 08:52:49;;;;;;;6.03;4.60;;;;;;;-141.48;100.00;69781.59;5173554;28;20037;-83
2022/10/02 08:56:02;;;;;;;5.18;4.68;;;;;;;-141.48;100.00;69781.59;5173426;28;20374;-81
2022/10/02 08:58:51;;;;;;;8.85;4.35;;;;;;;-141.48;100.00;69781.59;5145389;28;20077;-82
2022/10/02 09:01:40;;;;;;;5.72;3.22;;;;;;;-141.48;100.00;69781.59;5174746;28;20496;-82
2022/10/02 09:04:37;;;;;;;6.78;4.03;;;;;;;-141.48;100.00;69781.59;5174168;28;20030;-82
2022/10/02 09:07:28;;;;;;;5.63;3.97;;;;;;;-141.48;100.00;69781.59;5173357;28;20046;-81
2022/10/02 09:10:01;;;;;;;10.40;6.07;;;;;;;-141.48;100.00;69781.59;5174008;28;20121;-81
2022/10/02 09:12:38;;;;;;;8.93;4.47;;;;;;;-141.48;100.00;69781.59;5171835;28;20037;-82
2022/10/02 09:15:17;;;;;;;10.30;4.57;;;;;;;-141.48;100.00;69781.59;5172851;28;20480;-82
2022/10/02 09:18:13;;;;;;;7.57;5.28;;;;;;;-141.48;100.00;69781.59;5175103;28;20057;-80
2022/10/02 09:21:10;;;;;;;6.88;4.38;;;;;;;-141.48;100.00;69781.59;5171445;28;20062;-80
2022/10/02 09:24:18;;;;;;;6.95;5.47;;;;;;;-141.48;100.00;69781.59;5170927;28;20041;-80
2022/10/02 09:27:03;;;;;;;10.55;5.28;;;;;;;-141.48;100.00;69781.59;5169076;28;20125;-80
2022/10/02 09:29:49;;;;;;;10.75;6.15;;;;;;;-141.48;100.00;69781.59;5171379;28;20026;-81
2022/10/02 09:32:42;;;;;;;14.82;4.00;;;;;;;-141.48;100.00;69781.59;5172092;28;20427;-81
2022/10/02 09:35:39;;;;;;;8.48;5.68;;;;;;;-141.48;100.00;69781.59;5169950;28;20056;-81
2022/10/02 09:38:20;;;;;;;10.07;4.93;;;;;;;-141.48;100.00;69781.59;5169654;28;20026;-82
2022/10/02 09:41:24;;;;;;;4.95;4.43;;;;;;;-141.48;100.00;69781.59;5173009;28;20041;-81
2022/10/02 09:44:09;;;;;;;10.93;5.07;;;;;;;-141.48;100.00;69781.59;5172230;28;20025;-82
2022/10/02 09:46:51;;;;;;;7.72;4.30;;;;;;;-141.48;100.00;69781.59;5173251;28;20026;-83
2022/10/02 09:49:56;;;;;;;3.88;3.58;;;;;;;-141.48;100.00;69781.59;5173976;28;20026;-81
2022/10/02 09:52:32;;;;;;;5.18;4.80;;;;;;;-141.48;100.00;69781.59;5172740;28;20030;-81
2022/10/02 09:55:36;;;;;;;6.15;5.60;;;;;;;-141.48;100.00;69781.59;5173175;28;20037;-82
2022/10/02 09:58:18;;;;;;;7.47;6.22;;;;;;;-141.48;100.00;69781.59;5173726;28;20030;-82
2022/10/02 10:01:07;;;;;;;8.80;5.22;;;;;;;-141.48;100.00;69781.59;5170965;28;20030;-82
2022/10/02 10:04:08;;;;;;;9.80;4.93;;;;;;;-141.48;100.00;69781.59;5171092;28;20045;-81
2022/10/02 10:07:10;;;;;;;6.10;5.55;;;;;;;-141.48;100.00;69781.59;5172280;28;20018;-80
2022/10/02 10:10:20;;;;;;;6.18;5.68;;;;;;;-141.48;100.00;69781.59;5161971;28;20073;-80
2022/10/02 10:12:56;;;;;;;5.05;4.10;;;;;;;-141.48;100.00;69781.59;5162150;28;20141;-81
2022/10/02 10:15:56;;;;;;;7.97;4.53;;;;;;;-141.48;100.00;69781.59;5172343;28;20035;-81
2022/10/02 10:18:49;;;;;;;7.57;6.85;;;;;;;-141.48;100.00;69781.59;5173316;28;20045;-82
2022/10/02 10:21:57;;;;;;;6.00;4.60;;;;;;;-141.48;100.00;69781.59;5172798;28;20044;-83
2022/10/02 10:24:59;;;;;;;5.10;4.70;;;;;;;-141.48;100.00;69781.59;5170392;28;20072;-81
2022/10/02 10:27:32;;;;;;;5.68;5.25;;;;;;;-141.48;100.00;69781.59;5171396;28;20086;-81
2022/10/02 10:30:20;;;;;;;10.45;5.45;;;;;;;-141.48;100.00;69781.59;5172998;28;20031;-81
2022/10/02 10:33:02;;;;;;;7.75;5.10;;;;;;;-141.48;100.00;69781.59;5171764;28;20034;-80
2022/10/02 10:35:35;;;;;;;5.60;5.00;;;;;;;-141.48;100.00;69781.59;5173120;28;20038;-83
2022/10/02 10:41:31;;;;;;;5.85;5.32;;;;;;;-141.48;100.00;69781.59;5173025;28;20395;-83
2022/10/02 10:44:17;;;;;;;6.28;5.47;;;;;;;-141.48;100.00;69781.59;5172664;28;20026;-81
2022/10/02 10:47:06;;;;;;;5.88;5.38;;;;;;;-141.48;100.00;69781.59;5173424;28;20096;-82
2022/10/02 10:49:56;;;;;;;;;;;;;;;-141.48;100.00;69781.59;5172571;28;20048;-80
2022/10/02 10:52:27;;;;;;;5.70;5.18;;;;;;;-141.48;100.00;69781.59;5173265;28;19916;-82
2022/10/02 10:55:09;;;;;;;5.88;5.18;;;;;;;-141.48;100.00;69781.59;5171156;28;20489;-81
2022/10/02 10:57:50;;;;;;;7.20;6.60;;;;;;;-141.48;100.00;69781.59;5173238;28;20530;-82
2022/10/02 11:00:31;;;;;;;9.23;6.13;;;;;;;-141.48;100.00;69781.59;5172926;28;20062;-82
2022/10/02 11:03:31;;;;;;;7.28;6.35;;;;;;;-141.48;100.00;69781.59;5172370;28;20030;-81
2022/10/02 11:06:04;;;;;;;;;;;;;;;-141.48;100.00;69781.59;5138183;28;20065;-80
2022/10/02 11:08:47;;;;;;;6.72;6.18;;;;;;;-141.48;100.00;69781.59;5176173;28;19910;-82
2022/10/02 11:11:41;;;;;;;6.55;5.90;;;;;;;-141.48;100.00;69781.59;5177154;28;20085;-80
2022/10/02 11:14:40;;;;;;;7.15;5.30;;;;;;;-141.48;100.00;69781.59;5176958;28;20045;-82
2022/10/02 11:17:10;;;;;;;16.23;6.90;;;;;;;-141.48;100.00;69781.59;5178296;28;20057;-82
2022/10/02 11:19:59;;;;;;;9.05;5.88;;;;;;;-141.48;100.00;69781.59;5177528;28;20026;-81
2022/10/02 11:22:36;;;;;;;9.00;5.43;;;;;;;-141.48;100.00;69781.59;5177595;28;20022;-81
2022/10/02 11:25:20;;;;;;;6.28;5.68;;;;;;;-141.48;100.00;69781.59;5176903;28;20037;-81
2022/10/02 11:28:20;;;;;;;5.03;4.72;;;;;;;-141.48;100.00;69781.59;5176107;28;20033;-82
2022/10/02 11:30:52;;;;;;;5.72;4.63;;;;;;;-141.48;100.00;69781.59;5177162;28;20026;-81
2022/10/02 11:33:52;;;;;;;5.50;5.10;;;;;;;-141.48;100.00;69781.59;5174972;28;20030;-82
2022/10/02 11:36:49;;;;;;;9.07;4.90;;;;;;;-141.48;100.00;69781.59;5177089;28;20437;-82
2022/10/02 11:39:46;;;;;;;6.05;4.97;;;;;;;-141.48;100.00;69781.59;5177016;28;20030;-83
2022/10/02 11:42:35;;;;;;;8.95;5.72;;;;;;;-141.48;100.00;69781.59;5176676;28;20029;-81
2022/10/02 11:45:15;;;;;;;6.40;4.03;;;;;;;-141.48;100.00;69781.59;5175223;28;20046;-81
2022/10/02 11:48:24;;;;;;;6.63;4.72;;;;;;;-141.48;100.00;69781.59;5175727;28;20029;-82
2022/10/02 11:51:09;;;;;;;;;;;;;;;-141.48;100.00;69781.59;5175376;28;20037;-83
2022/10/02 11:54:08;;;;;;;5.57;4.22;;;;;;;-141.48;100.00;69781.59;5176662;28;19909;-81
2022/10/02 11:57:17;;;;;;;7.30;5.83;;;;;;;-141.48;100.00;69781.59;5176660;28;20034;-82
2022/10/02 12:00:25;;;;;;;6.80;6.25;;;;;;;-141.48;100.00;69781.59;5173170;28;20292;-82
2022/10/02 12:03:00;;;;;;;5.80;5.38;;;;;;;-141.48;100.00;69781.59;5177604;28;20026;-83
2022/10/02 12:05:43;;;;;;;6.28;5.28;;;;;;;-141.48;100.00;69781.59;5177763;28;20018;-82
2022/10/02 12:08:45;;;;;;;6.60;6.18;;;;;;;-141.48;100.00;69781.59;5177575;28;20030;-83
2022/10/02 12:11:48;;;;;;;7.38;6.40;;;;;;;-141.48;100.00;69781.59;5176066;28;20027;-84
2022/10/02 12:14:36;;;;;;;9.52;6.05;;;;;;;-141.48;100.00;69781.59;5176708;28;20026;-81
2022/10/02 12:17:42;;;;;;;6.82;6.07;;;;;;;-141.48;100.00;69781.59;5176733;28;20034;-82
2022/10/02 12:26:58;;;;;;;7.40;6.13;;;;;;;-141.48;100.00;69781.59;5208081;28;20045;-80
2022/10/02 12:29:44;;;;;;;9.93;7.15;;;;;;;-141.48;100.00;69781.59;5209549;28;20024;-79
2022/10/02 12:32:19;;;;;;;8.75;6.32;;;;;;;-141.48;100.00;69781.59;5209386;28;20025;-80
2022/10/02 12:35:34;;;;;;;8.73;7.93;;;;;;;-141.48;100.00;69781.59;5209174;28;20026;-81
2022/10/02 12:38:27;;;;;;;8.70;8.00;;;;;;;-141.48;100.00;69781.59;5208289;28;20025;-81
2022/10/02 12:41:22;;;;;;;11.45;6.97;;;;;;;-141.48;100.00;69781.59;5212008;28;20117;-81
2022/10/02 12:43:55;;;;;;;12.05;9.13;;;;;;;-141.48;100.00;69781.59;5207981;28;20027;-82